Tropical Cyclones
[Index]
Main Index Home Page Stock Weather Photos Extreme Storms Discussion Storm News and Storm Chasing Reports Tropical Cyclones / Hurricanes / Typhoons Weather Data and Links Wild Fires / Bushfires Weather Observation Techniques Weather Picture Catalogue Tornado Pictures and Reports Stock Video Footage and DVDs for sale
Season 2013-2014 Tropical Cyclone HADI Track Map
Season 2013-2014 Summaries: [BoM-AU] [JTWC-AU] [JTWC-SIO] [JTWC-SPAC] [JTWC-SH]
<<- Previous TC | BoM 2013-2014 Season | Next TC ->>

click for intensity scale information  Lat/long Grid: Show Hide

 Date Labels: Show Hide

Bureau of Meteorology Tropical Cyclone Data

Name: HADI
Number: 977 / 201314_13

28 Feb 2014 00:00 UTC to 17 Mar 2014 12:00 UTC

    date/time    lat    long    hPa   cat  kts
2014-02-28 00   13.4   160.0   1002         20          
2014-02-28 12   12.5   157.4   1002         25          
2014-03-01 00   11.5   156.5   1003         25          
2014-03-01 06   11.1   156.7   1000         25          
2014-03-01 12   11.0   157.2   1004         25          
2014-03-02 00   11.0   158.0   1003         25          
2014-03-02 06   10.6   158.2   1001         25          
2014-03-02 12   10.5   158.0   1003         20          
2014-03-03 00   11.0   157.0   1002         20          
2014-03-03 06   11.2   157.2   1002         20          
2014-03-03 12   11.0   157.0   1004         20          
2014-03-03 18   10.8   156.8   1003         20          
2014-03-04 00   11.0   154.5   1003         20          
2014-03-05 00   10.8   152.3                            
2014-03-05 06    9.5   155.7                            
2014-03-05 12   10.2   156.2                            
2014-03-05 18   10.5   156.0                            
2014-03-06 00   12.1   155.8   1004         25          
2014-03-06 06   13.2   154.7   1002         25          
2014-03-06 12   13.9   154.2   1005         25          
2014-03-06 18   14.7   152.8                25          
2014-03-07 00   14.5   151.8   1001         15          
2014-03-07 06   14.7   151.1   1000         20          
2014-03-07 12   15.0   150.6    999         20          
2014-03-07 18   15.2   150.0    999         20          
2014-03-08 00   15.5   149.6   1000         25          
2014-03-08 06   15.8   149.6    999         25          
2014-03-08 12   16.4   150.1    999         25          
2014-03-08 18   17.0   150.0    997         25          
2014-03-09 00   17.7   149.7    997         25          
2014-03-09 06   18.0   149.7    996         25          
2014-03-09 12   18.4   150.1    996         30          
2014-03-09 18   18.7   150.6    995    1    35          
2014-03-10 00   18.9   150.9    996         40          
2014-03-10 06   19.0   151.2    992    1    40          
2014-03-10 12   18.9   151.5    996         40          
2014-03-10 18   18.3   151.4    999         30          
2014-03-11 00   17.8   151.2   1000         30          
2014-03-11 06   17.5   151.4   1000         25          
2014-03-11 12   17.1   152.6   1001         25          
2014-03-11 18   16.7   153.2                            
2014-03-12 00   15.5   154.8   1006         30          
2014-03-12 06   14.9   157.0   1003         30          
2014-03-12 12   14.5   158.9   1001         30          
2014-03-12 18   14.1   160.8                            
2014-03-13 00   12.4   164.6                            
2014-03-13 06   12.3   166.9                            
2014-03-14 18   13.9   172.9                            
2014-03-15 00   14.5   172.9                            
2014-03-15 06   15.7   172.5                            
2014-03-15 18   15.9   170.5                            
2014-03-16 00   15.4   169.2                            
2014-03-17 12   15.3   165.8                            
Winds are 10-min average.

Tropical cyclone tracks developed by Michael Bath using data from the Bureau of Meteorology and Google Maps.


[Australian Severe Weather index] [Copyright Notice] [Email Contacts] [Search This Site] [Privacy Policy]
Document: tropical_cyclone_hadi.htm Updated: 29 June 2017